sensor_id;sensor_type;location;lat;lon;timestamp;P1;P2;P0
72031;PMS5003;49185;42.320;23.198;2023-05-23T00:00:53;0.00;0.00;0.00
72031;PMS5003;49185;42.320;23.198;2023-05-23T00:03:19;1.00;0.00;0.00
72031;PMS5003;49185;42.320;23.198;2023-05-23T00:05:44;1.00;0.00;0.00
72031;PMS5003;49185;42.320;23.198;2023-05-23T00:08:10;1.33;1.00;0.00
72031;PMS5003;49185;42.320;23.198;2023-05-23T00:10:35;1.00;0.00;0.00
72031;PMS5003;49185;42.320;23.198;2023-05-23T00:13:01;0.00;0.00;0.00
72031;PMS5003;49185;42.320;23.198;2023-05-23T00:15:26;0.00;0.00;0.00
72031;PMS5003;49185;42.320;23.198;2023-05-23T00:17:51;0.00;0.00;0.00
72031;PMS5003;49185;42.320;23.198;2023-05-23T00:20:17;0.00;0.00;0.00
72031;PMS5003;49185;42.320;23.198;2023-05-23T00:22:42;2.00;0.00;0.00
72031;PMS5003;49185;42.320;23.198;2023-05-23T00:25:08;1.00;0.00;0.00
72031;PMS5003;49185;42.320;23.198;2023-05-23T00:27:34;2.00;2.00;0.00
72031;PMS5003;49185;42.320;23.198;2023-05-23T00:30:00;1.00;1.00;0.00
72031;PMS5003;49185;42.320;23.198;2023-05-23T00:32:26;2.00;1.00;0.00
72031;PMS5003;49185;42.320;23.198;2023-05-23T00:34:51;2.00;1.00;0.00
72031;PMS5003;49185;42.320;23.198;2023-05-23T00:37:16;2.00;1.00;0.00
72031;PMS5003;49185;42.320;23.198;2023-05-23T00:39:42;2.00;1.00;0.00
72031;PMS5003;49185;42.320;23.198;2023-05-23T00:42:07;0.00;0.00;0.00
72031;PMS5003;49185;42.320;23.198;2023-05-23T00:44:33;1.00;1.00;0.00
72031;PMS5003;49185;42.320;23.198;2023-05-23T00:46:58;1.00;1.00;0.00
72031;PMS5003;49185;42.320;23.198;2023-05-23T00:49:24;1.00;1.00;0.00
72031;PMS5003;49185;42.320;23.198;2023-05-23T00:51:50;1.00;1.00;0.00
72031;PMS5003;49185;42.320;23.198;2023-05-23T00:54:17;3.00;2.00;0.00
72031;PMS5003;49185;42.320;23.198;2023-05-23T00:56:48;2.00;2.00;0.00
72031;PMS5003;49185;42.320;23.198;2023-05-23T00:59:15;1.00;1.00;0.00
72031;PMS5003;49185;42.320;23.198;2023-05-23T01:01:40;1.00;1.00;0.00
72031;PMS5003;49185;42.320;23.198;2023-05-23T01:04:06;1.00;1.00;0.00
72031;PMS5003;49185;42.320;23.198;2023-05-23T01:06:32;0.00;0.00;0.00
72031;PMS5003;49185;42.320;23.198;2023-05-23T01:08:57;1.00;0.00;0.00
72031;PMS5003;49185;42.320;23.198;2023-05-23T01:11:28;2.00;2.00;0.00
72031;PMS5003;49185;42.320;23.198;2023-05-23T01:14:12;3.50;1.00;0.00
72031;PMS5003;49185;42.320;23.198;2023-05-23T01:16:47;1.50;1.50;0.00
72031;PMS5003;49185;42.320;23.198;2023-05-23T01:19:28;1.00;1.00;0.00
72031;PMS5003;49185;42.320;23.198;2023-05-23T01:22:36;1.00;1.00;0.00
72031;PMS5003;49185;42.320;23.198;2023-05-23T01:28:20;1.00;0.75;0.00
72031;PMS5003;49185;42.320;23.198;2023-05-23T01:30:51;0.00;0.00;0.00
72031;PMS5003;49185;42.320;23.198;2023-05-23T01:33:21;1.00;0.00;0.00
72031;PMS5003;49185;42.320;23.198;2023-05-23T01:35:47;1.00;0.00;0.00
72031;PMS5003;49185;42.320;23.198;2023-05-23T01:38:13;1.00;1.00;0.00
72031;PMS5003;49185;42.320;23.198;2023-05-23T01:40:39;2.00;1.00;0.00
72031;PMS5003;49185;42.320;23.198;2023-05-23T01:43:04;2.00;2.00;0.00
72031;PMS5003;49185;42.320;23.198;2023-05-23T01:45:30;2.25;2.25;0.00
72031;PMS5003;49185;42.320;23.198;2023-05-23T01:47:56;0.00;0.00;0.00
72031;PMS5003;49185;42.320;23.198;2023-05-23T01:50:22;0.00;0.00;0.00
72031;PMS5003;49185;42.320;23.198;2023-05-23T01:52:48;0.00;0.00;0.00
72031;PMS5003;49185;42.320;23.198;2023-05-23T01:55:15;1.75;1.25;0.00
72031;PMS5003;49185;42.320;23.198;2023-05-23T01:57:42;0.25;0.25;0.00
72031;PMS5003;49185;42.320;23.198;2023-05-23T02:00:10;0.00;0.00;0.00
72031;PMS5003;49185;42.320;23.198;2023-05-23T02:02:36;0.00;0.00;0.00
72031;PMS5003;49185;42.320;23.198;2023-05-23T02:05:01;1.00;1.00;0.00
72031;PMS5003;49185;42.320;23.198;2023-05-23T02:07:27;1.33;1.00;0.00
72031;PMS5003;49185;42.320;23.198;2023-05-23T02:09:52;0.00;0.00;0.00
72031;PMS5003;49185;42.320;23.198;2023-05-23T02:12:18;1.00;1.00;0.00
72031;PMS5003;49185;42.320;23.198;2023-05-23T02:14:44;2.00;0.00;0.00
72031;PMS5003;49185;42.320;23.198;2023-05-23T02:17:09;1.00;1.00;0.00
72031;PMS5003;49185;42.320;23.198;2023-05-23T02:19:35;2.00;2.00;0.00
72031;PMS5003;49185;42.320;23.198;2023-05-23T02:22:01;1.33;1.33;0.00
72031;PMS5003;49185;42.320;23.198;2023-05-23T02:24:26;3.00;3.00;0.00
72031;PMS5003;49185;42.320;23.198;2023-05-23T02:26:52;1.00;1.00;0.00
72031;PMS5003;49185;42.320;23.198;2023-05-23T02:29:18;3.50;3.00;0.00
72031;PMS5003;49185;42.320;23.198;2023-05-23T02:31:43;2.00;2.00;0.00
72031;PMS5003;49185;42.320;23.198;2023-05-23T02:34:09;1.67;1.33;0.00
72031;PMS5003;49185;42.320;23.198;2023-05-23T02:36:34;3.00;2.00;0.00
72031;PMS5003;49185;42.320;23.198;2023-05-23T02:39:00;6.00;4.00;0.00
72031;PMS5003;49185;42.320;23.198;2023-05-23T02:41:25;2.00;2.00;0.00
72031;PMS5003;49185;42.320;23.198;2023-05-23T02:43:51;2.67;2.00;0.00
72031;PMS5003;49185;42.320;23.198;2023-05-23T02:46:16;3.00;3.00;0.00
72031;PMS5003;49185;42.320;23.198;2023-05-23T02:48:41;3.00;2.67;0.00
72031;PMS5003;49185;42.320;23.198;2023-05-23T02:51:07;2.00;2.00;0.00
72031;PMS5003;49185;42.320;23.198;2023-05-23T02:53:32;3.33;3.00;0.00
72031;PMS5003;49185;42.320;23.198;2023-05-23T02:55:58;1.00;1.00;0.00
72031;PMS5003;49185;42.320;23.198;2023-05-23T02:58:23;7.00;7.00;0.00
72031;PMS5003;49185;42.320;23.198;2023-05-23T03:00:48;11.33;11.00;2.00
72031;PMS5003;49185;42.320;23.198;2023-05-23T03:03:14;17.67;13.00;6.00
72031;PMS5003;49185;42.320;23.198;2023-05-23T03:05:39;13.00;10.00;3.00
72031;PMS5003;49185;42.320;23.198;2023-05-23T03:08:05;7.00;6.00;1.00
72031;PMS5003;49185;42.320;23.198;2023-05-23T03:10:30;3.67;3.67;0.00
72031;PMS5003;49185;42.320;23.198;2023-05-23T03:12:55;3.00;3.00;0.00
72031;PMS5003;49185;42.320;23.198;2023-05-23T03:15:21;5.00;4.00;0.00
72031;PMS5003;49185;42.320;23.198;2023-05-23T03:17:46;6.00;6.00;0.00
72031;PMS5003;49185;42.320;23.198;2023-05-23T03:20:12;3.00;3.00;1.00
72031;PMS5003;49185;42.320;23.198;2023-05-23T03:22:37;6.00;5.67;1.33
72031;PMS5003;49185;42.320;23.198;2023-05-23T03:25:03;7.00;6.33;2.00
72031;PMS5003;49185;42.320;23.198;2023-05-23T03:27:28;6.50;6.50;2.50
72031;PMS5003;49185;42.320;23.198;2023-05-23T03:29:54;5.67;4.00;1.67
72031;PMS5003;49185;42.320;23.198;2023-05-23T03:32:19;3.67;3.00;1.00
72031;PMS5003;49185;42.320;23.198;2023-05-23T03:34:45;5.00;4.00;1.00
72031;PMS5003;49185;42.320;23.198;2023-05-23T03:37:10;5.00;4.00;1.00
72031;PMS5003;49185;42.320;23.198;2023-05-23T03:39:35;4.00;4.00;0.00
72031;PMS5003;49185;42.320;23.198;2023-05-23T03:42:01;8.67;7.00;2.00
72031;PMS5003;49185;42.320;23.198;2023-05-23T03:44:26;6.00;5.00;1.33
72031;PMS5003;49185;42.320;23.198;2023-05-23T03:46:52;6.33;6.00;2.33
72031;PMS5003;49185;42.320;23.198;2023-05-23T03:49:17;10.00;7.00;2.00
72031;PMS5003;49185;42.320;23.198;2023-05-23T03:51:42;7.33;6.00;3.33
72031;PMS5003;49185;42.320;23.198;2023-05-23T03:54:08;7.00;6.00;3.00
72031;PMS5003;49185;42.320;23.198;2023-05-23T03:56:33;5.00;5.00;2.00
72031;PMS5003;49185;42.320;23.198;2023-05-23T03:58:59;4.00;4.00;1.00
72031;PMS5003;49185;42.320;23.198;2023-05-23T04:01:24;3.00;3.00;1.00
72031;PMS5003;49185;42.320;23.198;2023-05-23T04:03:50;4.33;4.33;0.00
72031;PMS5003;49185;42.320;23.198;2023-05-23T04:06:15;7.00;7.00;3.00
72031;PMS5003;49185;42.320;23.198;2023-05-23T04:08:41;5.00;5.00;3.00
72031;PMS5003;49185;42.320;23.198;2023-05-23T04:11:06;5.00;5.00;2.00
72031;PMS5003;49185;42.320;23.198;2023-05-23T04:13:32;5.00;4.00;1.00
72031;PMS5003;49185;42.320;23.198;2023-05-23T04:15:58;5.00;4.67;1.00
72031;PMS5003;49185;42.320;23.198;2023-05-23T04:18:25;5.00;5.00;0.75
72031;PMS5003;49185;42.320;23.198;2023-05-23T04:20:50;4.00;4.00;1.00
72031;PMS5003;49185;42.320;23.198;2023-05-23T04:23:16;3.00;2.00;0.00
72031;PMS5003;49185;42.320;23.198;2023-05-23T04:25:41;3.00;3.00;0.00
72031;PMS5003;49185;42.320;23.198;2023-05-23T04:28:06;4.67;4.67;1.00
72031;PMS5003;49185;42.320;23.198;2023-05-23T04:30:32;5.00;3.00;1.00
72031;PMS5003;49185;42.320;23.198;2023-05-23T04:32:57;3.67;3.00;0.00
72031;PMS5003;49185;42.320;23.198;2023-05-23T04:35:23;3.00;3.00;0.00
72031;PMS5003;49185;42.320;23.198;2023-05-23T04:37:48;3.00;3.00;0.00
72031;PMS5003;49185;42.320;23.198;2023-05-23T04:40:14;3.00;3.00;0.00
72031;PMS5003;49185;42.320;23.198;2023-05-23T04:42:39;2.00;2.00;0.00
72031;PMS5003;49185;42.320;23.198;2023-05-23T04:45:05;2.00;2.00;0.00
72031;PMS5003;49185;42.320;23.198;2023-05-23T04:47:30;3.00;2.50;0.00
72031;PMS5003;49185;42.320;23.198;2023-05-23T04:49:56;3.00;3.00;0.00
72031;PMS5003;49185;42.320;23.198;2023-05-23T04:52:21;2.33;2.33;0.00
72031;PMS5003;49185;42.320;23.198;2023-05-23T04:54:47;1.00;1.00;0.00
72031;PMS5003;49185;42.320;23.198;2023-05-23T04:57:12;1.00;1.00;0.00
72031;PMS5003;49185;42.320;23.198;2023-05-23T04:59:38;2.67;2.67;0.00
72031;PMS5003;49185;42.320;23.198;2023-05-23T05:02:03;3.00;3.00;0.00
72031;PMS5003;49185;42.320;23.198;2023-05-23T05:04:29;1.67;1.67;0.00
72031;PMS5003;49185;42.320;23.198;2023-05-23T05:06:54;1.00;1.00;0.00
72031;PMS5003;49185;42.320;23.198;2023-05-23T05:09:20;3.00;2.67;0.00
72031;PMS5003;49185;42.320;23.198;2023-05-23T05:11:45;1.00;1.00;0.00
72031;PMS5003;49185;42.320;23.198;2023-05-23T05:14:11;1.00;1.00;0.00
72031;PMS5003;49185;42.320;23.198;2023-05-23T05:16:36;2.33;2.33;0.00
72031;PMS5003;49185;42.320;23.198;2023-05-23T05:19:01;2.00;2.00;0.00
72031;PMS5003;49185;42.320;23.198;2023-05-23T05:21:27;3.00;3.00;0.00
72031;PMS5003;49185;42.320;23.198;2023-05-23T05:23:52;4.00;4.00;0.00
72031;PMS5003;49185;42.320;23.198;2023-05-23T05:26:18;2.00;2.00;0.00
72031;PMS5003;49185;42.320;23.198;2023-05-23T05:28:43;2.00;2.00;0.00
72031;PMS5003;49185;42.320;23.198;2023-05-23T05:31:08;3.00;3.00;0.00
72031;PMS5003;49185;42.320;23.198;2023-05-23T05:33:34;2.00;2.00;0.00
72031;PMS5003;49185;42.320;23.198;2023-05-23T05:36:00;2.00;2.00;0.00
72031;PMS5003;49185;42.320;23.198;2023-05-23T05:38:26;3.00;2.00;0.00
72031;PMS5003;49185;42.320;23.198;2023-05-23T05:40:51;3.00;3.00;0.00
72031;PMS5003;49185;42.320;23.198;2023-05-23T05:43:17;2.33;2.00;0.00
72031;PMS5003;49185;42.320;23.198;2023-05-23T05:45:42;3.00;3.00;0.00
72031;PMS5003;49185;42.320;23.198;2023-05-23T05:48:08;5.00;4.00;0.00
72031;PMS5003;49185;42.320;23.198;2023-05-23T05:50:33;4.00;3.00;0.00
72031;PMS5003;49185;42.320;23.198;2023-05-23T05:52:59;4.00;4.00;0.00
72031;PMS5003;49185;42.320;23.198;2023-05-23T05:55:24;4.00;4.00;0.00
72031;PMS5003;49185;42.320;23.198;2023-05-23T05:57:49;4.00;4.00;0.00
72031;PMS5003;49185;42.320;23.198;2023-05-23T06:00:17;5.00;4.00;0.75
72031;PMS5003;49185;42.320;23.198;2023-05-23T06:02:43;4.00;3.00;1.00
72031;PMS5003;49185;42.320;23.198;2023-05-23T06:05:09;2.75;2.00;1.00
72031;PMS5003;49185;42.320;23.198;2023-05-23T06:07:35;1.25;1.25;0.00
72031;PMS5003;49185;42.320;23.198;2023-05-23T06:10:01;3.00;2.33;0.00
72031;PMS5003;49185;42.320;23.198;2023-05-23T06:12:27;3.00;2.00;0.00
72031;PMS5003;49185;42.320;23.198;2023-05-23T06:14:52;3.00;1.00;0.00
72031;PMS5003;49185;42.320;23.198;2023-05-23T06:17:18;2.00;1.00;0.00
72031;PMS5003;49185;42.320;23.198;2023-05-23T06:19:43;4.67;4.67;0.00
72031;PMS5003;49185;42.320;23.198;2023-05-23T06:22:08;7.00;7.00;0.00
72031;PMS5003;49185;42.320;23.198;2023-05-23T06:24:34;4.00;4.00;1.00
72031;PMS5003;49185;42.320;23.198;2023-05-23T06:26:59;3.67;3.67;0.00
72031;PMS5003;49185;42.320;23.198;2023-05-23T06:29:25;4.33;4.33;2.00
72031;PMS5003;49185;42.320;23.198;2023-05-23T06:31:50;3.00;3.00;2.00
72031;PMS5003;49185;42.320;23.198;2023-05-23T06:34:15;2.00;2.00;1.00
72031;PMS5003;49185;42.320;23.198;2023-05-23T06:36:41;2.67;2.00;0.00
72031;PMS5003;49185;42.320;23.198;2023-05-23T06:39:07;3.00;3.00;0.00
72031;PMS5003;49185;42.320;23.198;2023-05-23T06:41:33;3.00;3.00;0.00
72031;PMS5003;49185;42.320;23.198;2023-05-23T06:43:58;2.00;2.00;0.00
72031;PMS5003;49185;42.320;23.198;2023-05-23T06:46:23;3.00;3.00;0.00
72031;PMS5003;49185;42.320;23.198;2023-05-23T06:48:49;3.00;3.00;0.00
72031;PMS5003;49185;42.320;23.198;2023-05-23T06:51:14;2.00;2.00;0.00
72031;PMS5003;49185;42.320;23.198;2023-05-23T06:53:40;3.00;3.00;0.00
72031;PMS5003;49185;42.320;23.198;2023-05-23T06:56:05;3.33;2.67;0.00
72031;PMS5003;49185;42.320;23.198;2023-05-23T06:58:31;2.67;2.67;0.00
72031;PMS5003;49185;42.320;23.198;2023-05-23T07:01:15;4.00;3.00;0.00
72031;PMS5003;49185;42.320;23.198;2023-05-23T07:03:40;3.00;3.00;0.00
72031;PMS5003;49185;42.320;23.198;2023-05-23T07:06:06;2.67;2.00;0.00
72031;PMS5003;49185;42.320;23.198;2023-05-23T07:08:32;5.00;3.75;0.00
72031;PMS5003;49185;42.320;23.198;2023-05-23T07:10:57;2.00;2.00;0.00
72031;PMS5003;49185;42.320;23.198;2023-05-23T07:13:23;13.67;13.33;8.67
72031;PMS5003;49185;42.320;23.198;2023-05-23T07:15:48;10.67;9.67;5.00
72031;PMS5003;49185;42.320;23.198;2023-05-23T07:18:14;4.00;4.00;2.00
72031;PMS5003;49185;42.320;23.198;2023-05-23T07:20:39;3.00;3.00;1.00
72031;PMS5003;49185;42.320;23.198;2023-05-23T07:23:04;1.67;1.00;0.00
72031;PMS5003;49185;42.320;23.198;2023-05-23T07:25:30;2.00;2.00;0.00
72031;PMS5003;49185;42.320;23.198;2023-05-23T07:27:55;3.00;3.00;0.00
72031;PMS5003;49185;42.320;23.198;2023-05-23T07:30:21;2.00;2.00;0.00
72031;PMS5003;49185;42.320;23.198;2023-05-23T07:32:46;1.33;1.33;0.00
72031;PMS5003;49185;42.320;23.198;2023-05-23T07:35:12;3.00;2.00;0.00
72031;PMS5003;49185;42.320;23.198;2023-05-23T07:37:37;1.00;1.00;0.00
72031;PMS5003;49185;42.320;23.198;2023-05-23T07:40:03;1.00;1.00;0.00
72031;PMS5003;49185;42.320;23.198;2023-05-23T07:42:29;1.50;1.25;0.00
72031;PMS5003;49185;42.320;23.198;2023-05-23T07:44:55;4.00;3.00;0.00
72031;PMS5003;49185;42.320;23.198;2023-05-23T07:47:20;2.33;2.00;0.00
72031;PMS5003;49185;42.320;23.198;2023-05-23T07:49:46;3.00;3.00;0.00
72031;PMS5003;49185;42.320;23.198;2023-05-23T07:52:11;3.00;3.00;0.00
72031;PMS5003;49185;42.320;23.198;2023-05-23T07:54:37;3.00;3.00;0.00
72031;PMS5003;49185;42.320;23.198;2023-05-23T07:57:02;4.33;3.67;0.00
72031;PMS5003;49185;42.320;23.198;2023-05-23T07:59:28;4.00;4.00;0.00
72031;PMS5003;49185;42.320;23.198;2023-05-23T08:01:53;3.00;3.00;0.00
72031;PMS5003;49185;42.320;23.198;2023-05-23T08:04:19;3.00;2.00;0.00
72031;PMS5003;49185;42.320;23.198;2023-05-23T08:06:44;4.00;3.00;1.00
72031;PMS5003;49185;42.320;23.198;2023-05-23T08:09:10;3.00;3.00;0.00
72031;PMS5003;49185;42.320;23.198;2023-05-23T08:11:35;3.00;3.00;1.00
72031;PMS5003;49185;42.320;23.198;2023-05-23T08:14:00;3.00;3.00;0.00
72031;PMS5003;49185;42.320;23.198;2023-05-23T08:16:26;2.33;2.33;0.00
72031;PMS5003;49185;42.320;23.198;2023-05-23T08:18:51;1.00;1.00;0.00
72031;PMS5003;49185;42.320;23.198;2023-05-23T08:21:17;2.00;2.00;0.00
72031;PMS5003;49185;42.320;23.198;2023-05-23T08:23:42;3.33;2.33;0.00
72031;PMS5003;49185;42.320;23.198;2023-05-23T08:26:07;3.00;3.00;0.00
72031;PMS5003;49185;42.320;23.198;2023-05-23T08:28:33;3.00;2.00;0.00
72031;PMS5003;49185;42.320;23.198;2023-05-23T08:30:58;2.33;1.33;0.00
72031;PMS5003;49185;42.320;23.198;2023-05-23T08:33:24;1.33;1.00;0.00
72031;PMS5003;49185;42.320;23.198;2023-05-23T08:35:49;2.00;2.00;0.00
72031;PMS5003;49185;42.320;23.198;2023-05-23T08:38:15;1.00;1.00;0.00
72031;PMS5003;49185;42.320;23.198;2023-05-23T08:40:40;1.00;1.00;0.00
72031;PMS5003;49185;42.320;23.198;2023-05-23T08:43:12;2.00;1.50;0.00
72031;PMS5003;49185;42.320;23.198;2023-05-23T08:45:50;2.00;2.00;0.00
72031;PMS5003;49185;42.320;23.198;2023-05-23T08:48:16;2.00;2.00;0.00
72031;PMS5003;49185;42.320;23.198;2023-05-23T08:50:45;1.00;1.00;0.00
72031;PMS5003;49185;42.320;23.198;2023-05-23T08:53:11;1.00;1.00;0.00
72031;PMS5003;49185;42.320;23.198;2023-05-23T08:55:39;4.75;2.00;0.00
72031;PMS5003;49185;42.320;23.198;2023-05-23T08:58:05;0.00;0.00;0.00
72031;PMS5003;49185;42.320;23.198;2023-05-23T09:00:31;2.00;2.00;0.00
72031;PMS5003;49185;42.320;23.198;2023-05-23T09:02:57;1.75;1.75;0.00
72031;PMS5003;49185;42.320;23.198;2023-05-23T09:05:24;1.00;1.00;0.00
72031;PMS5003;49185;42.320;23.198;2023-05-23T09:07:51;2.00;2.00;0.00
72031;PMS5003;49185;42.320;23.198;2023-05-23T09:10:17;1.00;1.00;0.00
72031;PMS5003;49185;42.320;23.198;2023-05-23T09:12:43;4.00;2.00;0.00
72031;PMS5003;49185;42.320;23.198;2023-05-23T09:15:08;3.00;1.00;0.00
72031;PMS5003;49185;42.320;23.198;2023-05-23T09:17:34;2.50;2.50;0.00
72031;PMS5003;49185;42.320;23.198;2023-05-23T09:20:10;2.75;2.50;0.00
72031;PMS5003;49185;42.320;23.198;2023-05-23T09:22:38;2.00;1.00;0.00
72031;PMS5003;49185;42.320;23.198;2023-05-23T09:25:04;1.00;1.00;0.00
72031;PMS5003;49185;42.320;23.198;2023-05-23T09:27:30;0.75;0.75;0.00
72031;PMS5003;49185;42.320;23.198;2023-05-23T09:29:56;1.00;1.00;0.00
72031;PMS5003;49185;42.320;23.198;2023-05-23T09:32:21;0.00;0.00;0.00
72031;PMS5003;49185;42.320;23.198;2023-05-23T09:34:57;1.00;0.00;0.00
72031;PMS5003;49185;42.320;23.198;2023-05-23T09:37:28;1.00;0.00;0.00
72031;PMS5003;49185;42.320;23.198;2023-05-23T09:39:53;1.25;0.25;0.00
72031;PMS5003;49185;42.320;23.198;2023-05-23T09:42:19;3.67;2.67;0.00
72031;PMS5003;49185;42.320;23.198;2023-05-23T09:44:46;3.50;2.50;0.00
72031;PMS5003;49185;42.320;23.198;2023-05-23T09:47:11;1.00;1.00;0.00
72031;PMS5003;49185;42.320;23.198;2023-05-23T09:49:39;0.00;0.00;0.00
72031;PMS5003;49185;42.320;23.198;2023-05-23T09:52:07;3.00;3.00;0.00
72031;PMS5003;49185;42.320;23.198;2023-05-23T09:54:32;2.00;2.00;0.00
72031;PMS5003;49185;42.320;23.198;2023-05-23T09:56:58;1.00;1.00;0.00
72031;PMS5003;49185;42.320;23.198;2023-05-23T09:59:30;2.00;2.00;0.00
72031;PMS5003;49185;42.320;23.198;2023-05-23T10:01:59;1.00;1.00;0.00
72031;PMS5003;49185;42.320;23.198;2023-05-23T10:04:29;1.00;1.00;0.00
72031;PMS5003;49185;42.320;23.198;2023-05-23T10:07:00;1.00;1.00;0.00
72031;PMS5003;49185;42.320;23.198;2023-05-23T10:09:32;1.25;1.00;0.00
72031;PMS5003;49185;42.320;23.198;2023-05-23T10:14:26;2.00;2.00;0.00
72031;PMS5003;49185;42.320;23.198;2023-05-23T10:22:05;1.00;1.00;0.00
72031;PMS5003;49185;42.320;23.198;2023-05-23T10:24:34;1.00;1.00;0.00
72031;PMS5003;49185;42.320;23.198;2023-05-23T10:27:01;1.75;1.00;0.00
72031;PMS5003;49185;42.320;23.198;2023-05-23T10:29:27;3.00;2.00;0.00
72031;PMS5003;49185;42.320;23.198;2023-05-23T10:31:54;3.00;1.25;0.00
72031;PMS5003;49185;42.320;23.198;2023-05-23T10:34:36;0.00;0.00;0.00
72031;PMS5003;49185;42.320;23.198;2023-05-23T10:37:11;1.00;1.00;0.00
72031;PMS5003;49185;42.320;23.198;2023-05-23T10:39:56;2.00;1.00;0.00
72031;PMS5003;49185;42.320;23.198;2023-05-23T10:45:13;1.00;1.00;0.00
72031;PMS5003;49185;42.320;23.198;2023-05-23T10:47:42;2.00;1.00;0.00
72031;PMS5003;49185;42.320;23.198;2023-05-23T10:50:10;1.00;1.00;0.00
72031;PMS5003;49185;42.320;23.198;2023-05-23T10:52:40;2.00;1.00;0.00
72031;PMS5003;49185;42.320;23.198;2023-05-23T10:55:13;1.50;0.00;0.00
72031;PMS5003;49185;42.320;23.198;2023-05-23T10:57:39;1.00;0.00;0.00
72031;PMS5003;49185;42.320;23.198;2023-05-23T11:00:05;0.33;0.00;0.00
72031;PMS5003;49185;42.320;23.198;2023-05-23T11:02:37;2.00;0.00;0.00
72031;PMS5003;49185;42.320;23.198;2023-05-23T11:05:20;2.25;0.25;0.00
72031;PMS5003;49185;42.320;23.198;2023-05-23T11:10:52;1.00;1.00;0.00
72031;PMS5003;49185;42.320;23.198;2023-05-23T11:13:19;1.00;1.00;0.00
72031;PMS5003;49185;42.320;23.198;2023-05-23T11:15:45;0.25;0.00;0.00
72031;PMS5003;49185;42.320;23.198;2023-05-23T11:18:18;2.00;1.00;0.00
72031;PMS5003;49185;42.320;23.198;2023-05-23T11:20:49;1.00;0.00;0.00
72031;PMS5003;49185;42.320;23.198;2023-05-23T11:23:16;0.00;0.00;0.00
72031;PMS5003;49185;42.320;23.198;2023-05-23T11:28:11;0.50;0.25;0.00
72031;PMS5003;49185;42.320;23.198;2023-05-23T11:30:37;1.25;1.25;0.00
72031;PMS5003;49185;42.320;23.198;2023-05-23T11:33:07;2.00;2.00;0.00
72031;PMS5003;49185;42.320;23.198;2023-05-23T11:35:33;1.00;1.00;0.00
72031;PMS5003;49185;42.320;23.198;2023-05-23T11:37:59;1.00;1.00;0.00
72031;PMS5003;49185;42.320;23.198;2023-05-23T11:40:33;0.00;0.00;0.00
72031;PMS5003;49185;42.320;23.198;2023-05-23T11:43:08;1.00;1.00;0.00
72031;PMS5003;49185;42.320;23.198;2023-05-23T11:45:36;0.25;0.25;0.00
72031;PMS5003;49185;42.320;23.198;2023-05-23T11:48:12;2.00;2.00;0.00
72031;PMS5003;49185;42.320;23.198;2023-05-23T11:50:47;1.50;1.50;0.00
72031;PMS5003;49185;42.320;23.198;2023-05-23T11:53:14;0.00;0.00;0.00
72031;PMS5003;49185;42.320;23.198;2023-05-23T11:55:46;1.00;1.00;0.00
72031;PMS5003;49185;42.320;23.198;2023-05-23T11:58:13;1.00;1.00;0.00
72031;PMS5003;49185;42.320;23.198;2023-05-23T12:00:42;0.00;0.00;0.00
72031;PMS5003;49185;42.320;23.198;2023-05-23T12:03:08;0.00;0.00;0.00
72031;PMS5003;49185;42.320;23.198;2023-05-23T12:05:33;0.00;0.00;0.00
72031;PMS5003;49185;42.320;23.198;2023-05-23T12:07:59;2.00;1.00;0.00
72031;PMS5003;49185;42.320;23.198;2023-05-23T12:10:25;2.00;0.00;0.00
72031;PMS5003;49185;42.320;23.198;2023-05-23T12:12:52;0.00;0.00;0.00
72031;PMS5003;49185;42.320;23.198;2023-05-23T12:15:18;0.00;0.00;0.00
72031;PMS5003;49185;42.320;23.198;2023-05-23T12:17:49;1.50;1.25;0.00
72031;PMS5003;49185;42.320;23.198;2023-05-23T12:20:14;0.00;0.00;0.00
72031;PMS5003;49185;42.320;23.198;2023-05-23T12:22:40;0.00;0.00;0.00
72031;PMS5003;49185;42.320;23.198;2023-05-23T12:25:09;0.00;0.00;0.00
72031;PMS5003;49185;42.320;23.198;2023-05-23T12:27:34;1.00;0.00;0.00
72031;PMS5003;49185;42.320;23.198;2023-05-23T12:30:05;0.67;0.00;0.00
72031;PMS5003;49185;42.320;23.198;2023-05-23T12:32:31;0.00;0.00;0.00
72031;PMS5003;49185;42.320;23.198;2023-05-23T12:34:57;0.00;0.00;0.00
72031;PMS5003;49185;42.320;23.198;2023-05-23T12:37:23;1.00;0.00;0.00
72031;PMS5003;49185;42.320;23.198;2023-05-23T12:39:48;1.00;0.00;0.00
72031;PMS5003;49185;42.320;23.198;2023-05-23T12:42:14;0.00;0.00;0.00
72031;PMS5003;49185;42.320;23.198;2023-05-23T12:44:42;1.00;0.67;0.00
72031;PMS5003;49185;42.320;23.198;2023-05-23T12:47:08;0.00;0.00;0.00
72031;PMS5003;49185;42.320;23.198;2023-05-23T12:49:34;0.00;0.00;0.00
72031;PMS5003;49185;42.320;23.198;2023-05-23T12:51:59;0.00;0.00;0.00
72031;PMS5003;49185;42.320;23.198;2023-05-23T12:54:24;0.33;0.33;0.00
72031;PMS5003;49185;42.320;23.198;2023-05-23T12:56:50;0.00;0.00;0.00
72031;PMS5003;49185;42.320;23.198;2023-05-23T12:59:15;1.00;1.00;0.00
72031;PMS5003;49185;42.320;23.198;2023-05-23T13:01:41;1.00;1.00;0.00
72031;PMS5003;49185;42.320;23.198;2023-05-23T13:04:06;0.00;0.00;0.00
72031;PMS5003;49185;42.320;23.198;2023-05-23T13:06:31;0.00;0.00;0.00
72031;PMS5003;49185;42.320;23.198;2023-05-23T13:08:57;0.25;0.25;0.00
72031;PMS5003;49185;42.320;23.198;2023-05-23T13:11:23;0.00;0.00;0.00
72031;PMS5003;49185;42.320;23.198;2023-05-23T13:13:49;1.00;0.00;0.00
72031;PMS5003;49185;42.320;23.198;2023-05-23T13:16:15;0.00;0.00;0.00
72031;PMS5003;49185;42.320;23.198;2023-05-23T13:18:41;2.00;2.00;0.00
72031;PMS5003;49185;42.320;23.198;2023-05-23T13:21:07;2.00;2.00;0.00
72031;PMS5003;49185;42.320;23.198;2023-05-23T13:23:33;1.00;1.00;0.00
72031;PMS5003;49185;42.320;23.198;2023-05-23T13:25:59;1.00;1.00;0.00
72031;PMS5003;49185;42.320;23.198;2023-05-23T13:28:24;1.00;1.00;0.00
72031;PMS5003;49185;42.320;23.198;2023-05-23T13:30:50;1.00;1.00;0.00
72031;PMS5003;49185;42.320;23.198;2023-05-23T13:33:15;2.67;1.67;0.00
72031;PMS5003;49185;42.320;23.198;2023-05-23T13:35:41;2.00;2.00;0.00
72031;PMS5003;49185;42.320;23.198;2023-05-23T13:38:07;1.00;1.00;0.00
72031;PMS5003;49185;42.320;23.198;2023-05-23T13:40:32;1.67;1.67;0.00
72031;PMS5003;49185;42.320;23.198;2023-05-23T13:42:58;2.00;1.00;0.00
72031;PMS5003;49185;42.320;23.198;2023-05-23T13:45:23;1.00;1.00;0.00
72031;PMS5003;49185;42.320;23.198;2023-05-23T13:47:49;2.00;1.00;0.00
72031;PMS5003;49185;42.320;23.198;2023-05-23T13:50:14;1.00;0.00;0.00
72031;PMS5003;49185;42.320;23.198;2023-05-23T13:52:40;1.00;0.00;0.00
72031;PMS5003;49185;42.320;23.198;2023-05-23T13:55:06;2.00;1.00;0.00
72031;PMS5003;49185;42.320;23.198;2023-05-23T13:57:32;1.00;1.00;0.00
72031;PMS5003;49185;42.320;23.198;2023-05-23T13:59:57;1.00;0.00;0.00
72031;PMS5003;49185;42.320;23.198;2023-05-23T14:02:22;2.00;2.00;0.00
72031;PMS5003;49185;42.320;23.198;2023-05-23T14:04:48;2.00;2.00;0.00
72031;PMS5003;49185;42.320;23.198;2023-05-23T14:07:14;2.00;2.00;0.00
72031;PMS5003;49185;42.320;23.198;2023-05-23T14:09:39;1.33;1.00;0.00
72031;PMS5003;49185;42.320;23.198;2023-05-23T14:12:05;2.33;2.33;0.00
72031;PMS5003;49185;42.320;23.198;2023-05-23T14:14:30;2.00;2.00;0.00
72031;PMS5003;49185;42.320;23.198;2023-05-23T14:16:56;2.00;1.00;0.00
72031;PMS5003;49185;42.320;23.198;2023-05-23T14:19:21;2.00;1.00;0.00
72031;PMS5003;49185;42.320;23.198;2023-05-23T14:21:47;1.00;0.00;0.00
72031;PMS5003;49185;42.320;23.198;2023-05-23T14:24:12;1.00;0.00;0.00